sensor_id;sensor_type;location;lat;lon;timestamp;P1;durP1;ratioP1;P2;durP2;ratioP2
23578;SDS011;11967;50.852;4.400;2023-06-22T00:00:56;3.65;;;2.65;;
23578;SDS011;11967;50.852;4.400;2023-06-22T00:03:24;5.25;;;2.83;;
23578;SDS011;11967;50.852;4.400;2023-06-22T00:05:50;5.07;;;2.40;;
23578;SDS011;11967;50.852;4.400;2023-06-22T00:08:17;5.63;;;3.72;;
23578;SDS011;11967;50.852;4.400;2023-06-22T00:10:43;4.97;;;2.28;;
23578;SDS011;11967;50.852;4.400;2023-06-22T00:13:09;6.43;;;2.45;;
23578;SDS011;11967;50.852;4.400;2023-06-22T00:15:36;3.47;;;2.40;;
23578;SDS011;11967;50.852;4.400;2023-06-22T00:18:03;6.05;;;3.28;;
23578;SDS011;11967;50.852;4.400;2023-06-22T00:20:30;3.08;;;2.10;;
23578;SDS011;11967;50.852;4.400;2023-06-22T00:22:57;3.80;;;2.33;;
23578;SDS011;11967;50.852;4.400;2023-06-22T00:25:24;5.13;;;3.10;;
23578;SDS011;11967;50.852;4.400;2023-06-22T00:27:51;3.53;;;2.75;;
23578;SDS011;11967;50.852;4.400;2023-06-22T00:30:16;3.25;;;2.50;;
23578;SDS011;11967;50.852;4.400;2023-06-22T00:32:44;6.35;;;3.33;;
23578;SDS011;11967;50.852;4.400;2023-06-22T00:35:11;6.18;;;2.67;;
23578;SDS011;11967;50.852;4.400;2023-06-22T00:37:37;4.03;;;2.40;;
23578;SDS011;11967;50.852;4.400;2023-06-22T00:40:05;3.70;;;2.50;;
23578;SDS011;11967;50.852;4.400;2023-06-22T00:42:33;7.72;;;2.95;;
23578;SDS011;11967;50.852;4.400;2023-06-22T00:44:59;5.05;;;3.25;;
23578;SDS011;11967;50.852;4.400;2023-06-22T00:47:25;3.97;;;2.30;;
23578;SDS011;11967;50.852;4.400;2023-06-22T00:49:51;4.97;;;3.22;;
23578;SDS011;11967;50.852;4.400;2023-06-22T00:52:17;4.82;;;2.90;;
23578;SDS011;11967;50.852;4.400;2023-06-22T00:54:48;5.07;;;3.75;;
23578;SDS011;11967;50.852;4.400;2023-06-22T00:57:16;6.03;;;3.83;;
23578;SDS011;11967;50.852;4.400;2023-06-22T00:59:42;3.83;;;2.67;;
23578;SDS011;11967;50.852;4.400;2023-06-22T01:02:13;4.03;;;3.00;;
23578;SDS011;11967;50.852;4.400;2023-06-22T01:04:39;5.45;;;3.45;;
23578;SDS011;11967;50.852;4.400;2023-06-22T01:07:10;2.75;;;2.45;;
23578;SDS011;11967;50.852;4.400;2023-06-22T01:09:44;3.55;;;3.00;;
23578;SDS011;11967;50.852;4.400;2023-06-22T01:12:22;6.88;;;3.80;;
23578;SDS011;11967;50.852;4.400;2023-06-22T01:14:51;6.80;;;3.95;;
23578;SDS011;11967;50.852;4.400;2023-06-22T01:17:20;9.40;;;4.65;;
23578;SDS011;11967;50.852;4.400;2023-06-22T01:19:49;6.25;;;3.20;;
23578;SDS011;11967;50.852;4.400;2023-06-22T01:22:21;5.68;;;3.88;;
23578;SDS011;11967;50.852;4.400;2023-06-22T01:25:09;3.95;;;2.63;;
23578;SDS011;11967;50.852;4.400;2023-06-22T01:30:12;4.00;;;3.03;;
23578;SDS011;11967;50.852;4.400;2023-06-22T01:32:40;7.97;;;4.88;;
23578;SDS011;11967;50.852;4.400;2023-06-22T01:35:10;9.18;;;4.85;;
23578;SDS011;11967;50.852;4.400;2023-06-22T01:37:37;4.45;;;3.10;;
23578;SDS011;11967;50.852;4.400;2023-06-22T01:40:04;4.88;;;3.35;;
23578;SDS011;11967;50.852;4.400;2023-06-22T01:42:31;5.20;;;3.60;;
23578;SDS011;11967;50.852;4.400;2023-06-22T01:44:57;4.28;;;2.60;;
23578;SDS011;11967;50.852;4.400;2023-06-22T01:47:24;4.63;;;3.25;;
23578;SDS011;11967;50.852;4.400;2023-06-22T01:49:51;7.95;;;4.43;;
23578;SDS011;11967;50.852;4.400;2023-06-22T01:52:17;7.68;;;4.75;;
23578;SDS011;11967;50.852;4.400;2023-06-22T01:54:43;7.60;;;4.57;;
23578;SDS011;11967;50.852;4.400;2023-06-22T01:57:09;4.03;;;2.83;;
23578;SDS011;11967;50.852;4.400;2023-06-22T01:59:37;4.72;;;2.20;;
23578;SDS011;11967;50.852;4.400;2023-06-22T02:02:10;5.82;;;3.65;;
23578;SDS011;11967;50.852;4.400;2023-06-22T02:04:44;4.07;;;2.70;;
23578;SDS011;11967;50.852;4.400;2023-06-22T02:07:17;3.97;;;2.50;;
23578;SDS011;11967;50.852;4.400;2023-06-22T02:09:46;6.88;;;4.45;;
23578;SDS011;11967;50.852;4.400;2023-06-22T02:12:13;4.65;;;3.67;;
23578;SDS011;11967;50.852;4.400;2023-06-22T02:14:44;4.78;;;2.78;;
23578;SDS011;11967;50.852;4.400;2023-06-22T02:17:11;6.22;;;4.55;;
23578;SDS011;11967;50.852;4.400;2023-06-22T02:19:37;6.35;;;4.38;;
23578;SDS011;11967;50.852;4.400;2023-06-22T02:22:06;3.67;;;2.55;;
23578;SDS011;11967;50.852;4.400;2023-06-22T02:24:31;5.80;;;2.92;;
23578;SDS011;11967;50.852;4.400;2023-06-22T02:26:58;5.20;;;3.70;;
23578;SDS011;11967;50.852;4.400;2023-06-22T02:29:25;5.72;;;3.42;;
23578;SDS011;11967;50.852;4.400;2023-06-22T02:31:52;4.28;;;2.47;;
23578;SDS011;11967;50.852;4.400;2023-06-22T02:34:18;5.45;;;3.47;;
23578;SDS011;11967;50.852;4.400;2023-06-22T02:36:45;6.22;;;4.60;;
23578;SDS011;11967;50.852;4.400;2023-06-22T02:39:19;6.13;;;3.47;;
23578;SDS011;11967;50.852;4.400;2023-06-22T02:41:47;3.67;;;2.88;;
23578;SDS011;11967;50.852;4.400;2023-06-22T02:44:13;6.50;;;4.97;;
23578;SDS011;11967;50.852;4.400;2023-06-22T02:46:39;3.95;;;2.47;;
23578;SDS011;11967;50.852;4.400;2023-06-22T02:49:04;6.85;;;4.97;;
23578;SDS011;11967;50.852;4.400;2023-06-22T02:51:32;6.97;;;4.28;;
23578;SDS011;11967;50.852;4.400;2023-06-22T02:53:59;5.00;;;3.60;;
23578;SDS011;11967;50.852;4.400;2023-06-22T02:56:25;6.28;;;3.20;;
23578;SDS011;11967;50.852;4.400;2023-06-22T02:58:51;6.05;;;4.45;;
23578;SDS011;11967;50.852;4.400;2023-06-22T03:01:17;6.80;;;4.78;;
23578;SDS011;11967;50.852;4.400;2023-06-22T03:03:48;3.72;;;2.80;;
23578;SDS011;11967;50.852;4.400;2023-06-22T03:06:13;7.57;;;5.50;;
23578;SDS011;11967;50.852;4.400;2023-06-22T03:08:40;6.13;;;4.22;;
23578;SDS011;11967;50.852;4.400;2023-06-22T03:11:07;7.40;;;5.47;;
23578;SDS011;11967;50.852;4.400;2023-06-22T03:13:33;6.93;;;5.20;;
23578;SDS011;11967;50.852;4.400;2023-06-22T03:15:59;4.25;;;2.90;;
23578;SDS011;11967;50.852;4.400;2023-06-22T03:18:24;5.30;;;3.85;;
23578;SDS011;11967;50.852;4.400;2023-06-22T03:20:50;5.38;;;3.13;;
23578;SDS011;11967;50.852;4.400;2023-06-22T03:23:16;5.45;;;3.28;;
23578;SDS011;11967;50.852;4.400;2023-06-22T03:25:42;5.47;;;4.22;;
23578;SDS011;11967;50.852;4.400;2023-06-22T03:28:09;6.40;;;4.10;;
23578;SDS011;11967;50.852;4.400;2023-06-22T03:30:35;6.70;;;3.72;;
23578;SDS011;11967;50.852;4.400;2023-06-22T03:33:01;9.55;;;4.90;;
23578;SDS011;11967;50.852;4.400;2023-06-22T03:35:26;6.53;;;4.63;;
23578;SDS011;11967;50.852;4.400;2023-06-22T03:37:52;8.65;;;5.10;;
23578;SDS011;11967;50.852;4.400;2023-06-22T03:40:18;8.05;;;5.43;;
23578;SDS011;11967;50.852;4.400;2023-06-22T03:42:44;7.35;;;4.35;;
23578;SDS011;11967;50.852;4.400;2023-06-22T03:45:10;8.02;;;5.57;;
23578;SDS011;11967;50.852;4.400;2023-06-22T03:47:36;3.20;;;2.60;;
23578;SDS011;11967;50.852;4.400;2023-06-22T03:50:02;7.32;;;5.18;;
23578;SDS011;11967;50.852;4.400;2023-06-22T03:52:31;10.32;;;5.35;;
23578;SDS011;11967;50.852;4.400;2023-06-22T03:54:57;8.15;;;4.38;;
23578;SDS011;11967;50.852;4.400;2023-06-22T03:57:31;4.43;;;2.72;;
23578;SDS011;11967;50.852;4.400;2023-06-22T03:59:57;8.18;;;5.00;;
23578;SDS011;11967;50.852;4.400;2023-06-22T04:02:24;8.05;;;5.05;;
23578;SDS011;11967;50.852;4.400;2023-06-22T04:04:49;4.20;;;3.47;;
23578;SDS011;11967;50.852;4.400;2023-06-22T04:07:16;5.03;;;3.10;;
23578;SDS011;11967;50.852;4.400;2023-06-22T04:09:42;9.10;;;6.20;;
23578;SDS011;11967;50.852;4.400;2023-06-22T04:12:08;9.55;;;6.18;;
23578;SDS011;11967;50.852;4.400;2023-06-22T04:14:34;9.23;;;5.35;;
23578;SDS011;11967;50.852;4.400;2023-06-22T04:17:00;9.55;;;5.60;;
23578;SDS011;11967;50.852;4.400;2023-06-22T04:19:26;9.18;;;6.53;;
23578;SDS011;11967;50.852;4.400;2023-06-22T04:21:52;9.68;;;6.68;;
23578;SDS011;11967;50.852;4.400;2023-06-22T04:24:19;6.60;;;3.63;;
23578;SDS011;11967;50.852;4.400;2023-06-22T04:26:45;9.15;;;5.80;;
23578;SDS011;11967;50.852;4.400;2023-06-22T04:29:12;5.80;;;4.28;;
23578;SDS011;11967;50.852;4.400;2023-06-22T04:31:38;7.32;;;5.18;;
23578;SDS011;11967;50.852;4.400;2023-06-22T04:34:04;8.18;;;4.65;;
23578;SDS011;11967;50.852;4.400;2023-06-22T04:36:37;9.55;;;6.05;;
23578;SDS011;11967;50.852;4.400;2023-06-22T04:39:06;8.25;;;6.25;;
23578;SDS011;11967;50.852;4.400;2023-06-22T04:41:37;11.15;;;7.43;;
23578;SDS011;11967;50.852;4.400;2023-06-22T04:44:08;5.18;;;3.40;;
23578;SDS011;11967;50.852;4.400;2023-06-22T04:46:35;7.72;;;4.18;;
23578;SDS011;11967;50.852;4.400;2023-06-22T04:49:03;5.72;;;4.00;;
23578;SDS011;11967;50.852;4.400;2023-06-22T04:51:37;7.28;;;4.47;;
23578;SDS011;11967;50.852;4.400;2023-06-22T04:54:04;6.43;;;4.20;;
23578;SDS011;11967;50.852;4.400;2023-06-22T04:56:30;9.52;;;5.47;;
23578;SDS011;11967;50.852;4.400;2023-06-22T04:58:58;10.40;;;6.30;;
23578;SDS011;11967;50.852;4.400;2023-06-22T05:01:23;10.05;;;6.65;;
23578;SDS011;11967;50.852;4.400;2023-06-22T05:03:50;8.25;;;5.13;;
23578;SDS011;11967;50.852;4.400;2023-06-22T05:06:20;7.00;;;4.57;;
23578;SDS011;11967;50.852;4.400;2023-06-22T05:08:46;9.13;;;4.65;;
23578;SDS011;11967;50.852;4.400;2023-06-22T05:11:12;8.27;;;5.47;;
23578;SDS011;11967;50.852;4.400;2023-06-22T05:13:38;6.55;;;4.53;;
23578;SDS011;11967;50.852;4.400;2023-06-22T05:16:03;11.82;;;7.47;;
23578;SDS011;11967;50.852;4.400;2023-06-22T05:18:31;5.38;;;3.78;;
23578;SDS011;11967;50.852;4.400;2023-06-22T05:20:58;8.45;;;6.15;;
23578;SDS011;11967;50.852;4.400;2023-06-22T05:23:24;14.05;;;8.27;;
23578;SDS011;11967;50.852;4.400;2023-06-22T05:25:50;7.80;;;5.05;;
23578;SDS011;11967;50.852;4.400;2023-06-22T05:28:16;13.63;;;8.27;;
23578;SDS011;11967;50.852;4.400;2023-06-22T05:30:42;7.40;;;4.18;;
23578;SDS011;11967;50.852;4.400;2023-06-22T05:33:07;4.47;;;4.00;;
23578;SDS011;11967;50.852;4.400;2023-06-22T05:35:33;6.10;;;3.80;;
23578;SDS011;11967;50.852;4.400;2023-06-22T05:37:58;11.27;;;4.20;;
23578;SDS011;11967;50.852;4.400;2023-06-22T05:40:24;6.60;;;3.80;;
23578;SDS011;11967;50.852;4.400;2023-06-22T05:42:50;7.47;;;4.97;;
23578;SDS011;11967;50.852;4.400;2023-06-22T05:45:16;8.45;;;3.60;;
23578;SDS011;11967;50.852;4.400;2023-06-22T05:47:42;6.95;;;3.78;;
23578;SDS011;11967;50.852;4.400;2023-06-22T05:50:08;6.90;;;4.03;;
23578;SDS011;11967;50.852;4.400;2023-06-22T05:52:34;7.28;;;3.83;;
23578;SDS011;11967;50.852;4.400;2023-06-22T05:55:00;9.15;;;3.97;;
23578;SDS011;11967;50.852;4.400;2023-06-22T05:57:27;7.40;;;4.82;;
23578;SDS011;11967;50.852;4.400;2023-06-22T05:59:52;7.93;;;4.47;;
23578;SDS011;11967;50.852;4.400;2023-06-22T06:02:19;13.65;;;5.53;;
23578;SDS011;11967;50.852;4.400;2023-06-22T06:04:44;7.53;;;4.68;;
23578;SDS011;11967;50.852;4.400;2023-06-22T06:07:11;7.07;;;4.38;;
23578;SDS011;11967;50.852;4.400;2023-06-22T06:09:37;7.90;;;4.07;;
23578;SDS011;11967;50.852;4.400;2023-06-22T06:12:03;7.05;;;4.28;;
23578;SDS011;11967;50.852;4.400;2023-06-22T06:14:38;6.68;;;4.32;;
23578;SDS011;11967;50.852;4.400;2023-06-22T06:17:04;11.73;;;4.78;;
23578;SDS011;11967;50.852;4.400;2023-06-22T06:19:30;7.93;;;4.47;;
23578;SDS011;11967;50.852;4.400;2023-06-22T06:21:56;9.10;;;4.55;;
23578;SDS011;11967;50.852;4.400;2023-06-22T06:24:22;7.35;;;4.80;;
23578;SDS011;11967;50.852;4.400;2023-06-22T06:26:48;9.98;;;5.22;;
23578;SDS011;11967;50.852;4.400;2023-06-22T06:29:13;10.77;;;5.47;;
23578;SDS011;11967;50.852;4.400;2023-06-22T06:31:41;9.60;;;5.40;;
23578;SDS011;11967;50.852;4.400;2023-06-22T06:34:07;8.27;;;5.35;;
23578;SDS011;11967;50.852;4.400;2023-06-22T06:36:32;8.88;;;5.22;;
23578;SDS011;11967;50.852;4.400;2023-06-22T06:38:58;10.52;;;5.63;;
23578;SDS011;11967;50.852;4.400;2023-06-22T06:41:23;11.52;;;4.90;;
23578;SDS011;11967;50.852;4.400;2023-06-22T06:43:49;11.85;;;5.90;;
23578;SDS011;11967;50.852;4.400;2023-06-22T06:46:21;9.07;;;5.93;;
23578;SDS011;11967;50.852;4.400;2023-06-22T06:48:46;9.73;;;5.43;;
23578;SDS011;11967;50.852;4.400;2023-06-22T06:51:12;9.32;;;5.10;;
23578;SDS011;11967;50.852;4.400;2023-06-22T06:53:38;13.65;;;9.20;;
23578;SDS011;11967;50.852;4.400;2023-06-22T06:56:05;20.83;;;12.63;;
23578;SDS011;11967;50.852;4.400;2023-06-22T06:58:30;21.08;;;11.27;;
23578;SDS011;11967;50.852;4.400;2023-06-22T07:00:56;22.13;;;13.73;;
23578;SDS011;11967;50.852;4.400;2023-06-22T07:03:22;131.52;;;66.70;;
23578;SDS011;11967;50.852;4.400;2023-06-22T07:05:47;82.57;;;46.80;;
23578;SDS011;11967;50.852;4.400;2023-06-22T07:08:13;84.43;;;48.38;;
23578;SDS011;11967;50.852;4.400;2023-06-22T07:10:40;56.92;;;34.95;;
23578;SDS011;11967;50.852;4.400;2023-06-22T07:13:05;45.22;;;26.67;;
23578;SDS011;11967;50.852;4.400;2023-06-22T07:15:31;34.35;;;20.73;;
23578;SDS011;11967;50.852;4.400;2023-06-22T07:17:57;25.02;;;15.35;;
23578;SDS011;11967;50.852;4.400;2023-06-22T07:20:22;22.13;;;13.05;;
23578;SDS011;11967;50.852;4.400;2023-06-22T07:22:48;21.42;;;12.27;;
23578;SDS011;11967;50.852;4.400;2023-06-22T07:25:14;18.48;;;10.45;;
23578;SDS011;11967;50.852;4.400;2023-06-22T07:27:43;16.73;;;8.80;;
23578;SDS011;11967;50.852;4.400;2023-06-22T07:30:22;13.88;;;7.45;;
23578;SDS011;11967;50.852;4.400;2023-06-22T07:32:48;14.90;;;7.32;;
23578;SDS011;11967;50.852;4.400;2023-06-22T07:35:13;13.18;;;6.85;;
23578;SDS011;11967;50.852;4.400;2023-06-22T07:37:42;12.30;;;6.70;;
23578;SDS011;11967;50.852;4.400;2023-06-22T07:40:09;13.73;;;6.72;;
23578;SDS011;11967;50.852;4.400;2023-06-22T07:42:35;13.40;;;7.70;;
23578;SDS011;11967;50.852;4.400;2023-06-22T07:45:04;8.48;;;5.53;;
23578;SDS011;11967;50.852;4.400;2023-06-22T07:47:32;9.70;;;5.25;;
23578;SDS011;11967;50.852;4.400;2023-06-22T07:50:02;9.98;;;5.75;;
23578;SDS011;11967;50.852;4.400;2023-06-22T07:52:29;9.02;;;5.93;;
23578;SDS011;11967;50.852;4.400;2023-06-22T07:54:55;11.38;;;5.88;;
23578;SDS011;11967;50.852;4.400;2023-06-22T07:57:21;10.40;;;5.70;;
23578;SDS011;11967;50.852;4.400;2023-06-22T07:59:46;10.95;;;5.80;;
23578;SDS011;11967;50.852;4.400;2023-06-22T08:02:12;9.65;;;5.60;;
23578;SDS011;11967;50.852;4.400;2023-06-22T08:04:38;12.05;;;7.50;;
23578;SDS011;11967;50.852;4.400;2023-06-22T08:07:04;7.25;;;5.03;;
23578;SDS011;11967;50.852;4.400;2023-06-22T08:09:30;7.75;;;5.05;;
23578;SDS011;11967;50.852;4.400;2023-06-22T08:11:57;8.80;;;5.28;;
23578;SDS011;11967;50.852;4.400;2023-06-22T08:14:26;10.27;;;4.90;;
23578;SDS011;11967;50.852;4.400;2023-06-22T08:16:52;10.32;;;5.05;;
23578;SDS011;11967;50.852;4.400;2023-06-22T08:19:18;10.75;;;6.40;;
23578;SDS011;11967;50.852;4.400;2023-06-22T08:21:43;11.48;;;5.40;;
23578;SDS011;11967;50.852;4.400;2023-06-22T08:24:10;9.43;;;5.20;;
23578;SDS011;11967;50.852;4.400;2023-06-22T08:26:36;9.40;;;5.80;;
23578;SDS011;11967;50.852;4.400;2023-06-22T08:29:05;12.55;;;6.50;;
23578;SDS011;11967;50.852;4.400;2023-06-22T08:31:31;11.23;;;5.10;;
23578;SDS011;11967;50.852;4.400;2023-06-22T08:34:00;7.82;;;5.63;;
23578;SDS011;11967;50.852;4.400;2023-06-22T08:36:25;10.75;;;5.90;;
23578;SDS011;11967;50.852;4.400;2023-06-22T08:38:54;8.07;;;5.47;;
23578;SDS011;11967;50.852;4.400;2023-06-22T08:41:25;14.05;;;11.57;;
23578;SDS011;11967;50.852;4.400;2023-06-22T08:43:50;15.80;;;10.05;;
23578;SDS011;11967;50.852;4.400;2023-06-22T08:46:16;13.65;;;10.45;;
23578;SDS011;11967;50.852;4.400;2023-06-22T08:48:46;14.40;;;10.00;;
23578;SDS011;11967;50.852;4.400;2023-06-22T08:51:12;19.70;;;12.20;;
23578;SDS011;11967;50.852;4.400;2023-06-22T08:53:38;13.93;;;8.32;;
23578;SDS011;11967;50.852;4.400;2023-06-22T08:56:04;13.43;;;9.35;;
23578;SDS011;11967;50.852;4.400;2023-06-22T08:58:30;15.38;;;10.93;;
23578;SDS011;11967;50.852;4.400;2023-06-22T09:00:55;13.93;;;9.48;;
23578;SDS011;11967;50.852;4.400;2023-06-22T09:03:21;13.27;;;9.88;;
23578;SDS011;11967;50.852;4.400;2023-06-22T09:05:51;13.93;;;8.23;;
23578;SDS011;11967;50.852;4.400;2023-06-22T09:08:16;16.75;;;10.10;;
23578;SDS011;11967;50.852;4.400;2023-06-22T09:10:42;14.63;;;11.57;;
23578;SDS011;11967;50.852;4.400;2023-06-22T09:13:08;10.82;;;8.82;;
23578;SDS011;11967;50.852;4.400;2023-06-22T09:15:33;12.80;;;9.35;;
23578;SDS011;11967;50.852;4.400;2023-06-22T09:18:00;17.80;;;10.32;;
23578;SDS011;11967;50.852;4.400;2023-06-22T09:20:25;13.95;;;10.52;;
23578;SDS011;11967;50.852;4.400;2023-06-22T09:22:51;13.20;;;9.98;;
23578;SDS011;11967;50.852;4.400;2023-06-22T09:25:17;14.93;;;10.30;;
23578;SDS011;11967;50.852;4.400;2023-06-22T09:27:45;17.90;;;10.65;;
23578;SDS011;11967;50.852;4.400;2023-06-22T09:30:13;15.18;;;10.02;;
23578;SDS011;11967;50.852;4.400;2023-06-22T09:32:40;11.68;;;8.80;;
23578;SDS011;11967;50.852;4.400;2023-06-22T09:35:07;13.80;;;10.20;;
23578;SDS011;11967;50.852;4.400;2023-06-22T09:37:34;14.45;;;10.20;;
23578;SDS011;11967;50.852;4.400;2023-06-22T09:40:01;10.15;;;8.18;;
23578;SDS011;11967;50.852;4.400;2023-06-22T09:42:33;13.48;;;8.02;;
23578;SDS011;11967;50.852;4.400;2023-06-22T09:44:59;13.20;;;8.15;;
23578;SDS011;11967;50.852;4.400;2023-06-22T09:47:26;9.48;;;6.28;;
23578;SDS011;11967;50.852;4.400;2023-06-22T09:49:52;18.30;;;11.30;;
23578;SDS011;11967;50.852;4.400;2023-06-22T09:52:20;21.83;;;10.57;;
23578;SDS011;11967;50.852;4.400;2023-06-22T09:54:46;15.93;;;9.15;;
23578;SDS011;11967;50.852;4.400;2023-06-22T09:57:12;21.00;;;11.38;;
23578;SDS011;11967;50.852;4.400;2023-06-22T09:59:39;19.42;;;10.70;;
23578;SDS011;11967;50.852;4.400;2023-06-22T10:02:07;16.08;;;10.20;;
23578;SDS011;11967;50.852;4.400;2023-06-22T10:04:34;15.77;;;9.70;;
23578;SDS011;11967;50.852;4.400;2023-06-22T10:07:00;12.68;;;8.38;;
23578;SDS011;11967;50.852;4.400;2023-06-22T10:09:26;17.73;;;10.23;;
23578;SDS011;11967;50.852;4.400;2023-06-22T10:11:51;15.15;;;9.63;;
23578;SDS011;11967;50.852;4.400;2023-06-22T10:14:17;16.33;;;10.15;;
23578;SDS011;11967;50.852;4.400;2023-06-22T10:16:43;20.20;;;10.30;;
23578;SDS011;11967;50.852;4.400;2023-06-22T10:19:10;16.95;;;10.27;;
23578;SDS011;11967;50.852;4.400;2023-06-22T10:21:36;16.88;;;10.00;;
23578;SDS011;11967;50.852;4.400;2023-06-22T10:24:03;16.35;;;10.73;;
23578;SDS011;11967;50.852;4.400;2023-06-22T10:26:32;16.80;;;10.88;;
23578;SDS011;11967;50.852;4.400;2023-06-22T10:28:58;13.55;;;9.63;;
23578;SDS011;11967;50.852;4.400;2023-06-22T10:31:24;12.35;;;9.95;;
23578;SDS011;11967;50.852;4.400;2023-06-22T10:33:50;15.57;;;10.68;;
23578;SDS011;11967;50.852;4.400;2023-06-22T10:36:16;14.82;;;10.73;;
23578;SDS011;11967;50.852;4.400;2023-06-22T10:38:42;14.43;;;9.65;;
23578;SDS011;11967;50.852;4.400;2023-06-22T10:41:08;14.10;;;9.48;;
23578;SDS011;11967;50.852;4.400;2023-06-22T10:43:34;13.52;;;10.40;;
23578;SDS011;11967;50.852;4.400;2023-06-22T10:45:59;14.73;;;10.40;;
23578;SDS011;11967;50.852;4.400;2023-06-22T10:48:25;15.68;;;11.07;;
23578;SDS011;11967;50.852;4.400;2023-06-22T10:50:51;13.68;;;10.00;;
23578;SDS011;11967;50.852;4.400;2023-06-22T10:53:18;11.07;;;8.82;;
23578;SDS011;11967;50.852;4.400;2023-06-22T10:55:45;13.80;;;8.75;;
23578;SDS011;11967;50.852;4.400;2023-06-22T10:58:11;15.68;;;10.18;;
23578;SDS011;11967;50.852;4.400;2023-06-22T11:00:37;13.45;;;11.63;;
23578;SDS011;11967;50.852;4.400;2023-06-22T11:03:03;16.30;;;12.98;;
23578;SDS011;11967;50.852;4.400;2023-06-22T11:05:28;21.40;;;12.32;;
23578;SDS011;11967;50.852;4.400;2023-06-22T11:07:54;16.17;;;11.82;;
23578;SDS011;11967;50.852;4.400;2023-06-22T11:10:20;18.65;;;10.57;;
23578;SDS011;11967;50.852;4.400;2023-06-22T11:12:45;17.15;;;11.88;;
23578;SDS011;11967;50.852;4.400;2023-06-22T11:15:11;21.35;;;14.00;;
23578;SDS011;11967;50.852;4.400;2023-06-22T11:17:36;18.48;;;12.25;;
23578;SDS011;11967;50.852;4.400;2023-06-22T11:20:02;17.77;;;11.55;;
23578;SDS011;11967;50.852;4.400;2023-06-22T11:22:38;19.73;;;13.77;;
23578;SDS011;11967;50.852;4.400;2023-06-22T11:25:05;19.42;;;13.40;;
23578;SDS011;11967;50.852;4.400;2023-06-22T11:27:31;20.95;;;13.60;;
23578;SDS011;11967;50.852;4.400;2023-06-22T11:29:57;16.83;;;12.88;;
23578;SDS011;11967;50.852;4.400;2023-06-22T11:32:23;19.73;;;13.68;;
23578;SDS011;11967;50.852;4.400;2023-06-22T11:34:49;19.23;;;13.68;;
23578;SDS011;11967;50.852;4.400;2023-06-22T11:37:14;24.02;;;15.45;;
23578;SDS011;11967;50.852;4.400;2023-06-22T11:39:43;21.13;;;14.05;;
23578;SDS011;11967;50.852;4.400;2023-06-22T11:42:09;19.27;;;13.68;;
23578;SDS011;11967;50.852;4.400;2023-06-22T11:44:35;20.02;;;14.82;;
23578;SDS011;11967;50.852;4.400;2023-06-22T11:47:01;24.48;;;15.00;;
23578;SDS011;11967;50.852;4.400;2023-06-22T11:49:29;16.75;;;13.93;;
23578;SDS011;11967;50.852;4.400;2023-06-22T11:51:55;18.35;;;13.50;;
23578;SDS011;11967;50.852;4.400;2023-06-22T11:54:21;15.57;;;12.40;;
23578;SDS011;11967;50.852;4.400;2023-06-22T11:56:47;18.65;;;12.98;;
23578;SDS011;11967;50.852;4.400;2023-06-22T11:59:13;20.02;;;13.75;;
23578;SDS011;11967;50.852;4.400;2023-06-22T12:01:38;18.85;;;12.05;;
23578;SDS011;11967;50.852;4.400;2023-06-22T12:04:05;16.33;;;12.73;;
23578;SDS011;11967;50.852;4.400;2023-06-22T12:06:32;16.90;;;12.82;;
23578;SDS011;11967;50.852;4.400;2023-06-22T12:09:00;15.60;;;12.60;;
23578;SDS011;11967;50.852;4.400;2023-06-22T12:11:30;18.00;;;13.50;;
23578;SDS011;11967;50.852;4.400;2023-06-22T12:13:55;15.63;;;12.20;;
23578;SDS011;11967;50.852;4.400;2023-06-22T12:16:22;16.20;;;12.35;;
23578;SDS011;11967;50.852;4.400;2023-06-22T12:18:49;15.60;;;12.68;;
23578;SDS011;11967;50.852;4.400;2023-06-22T12:21:15;14.70;;;10.98;;
23578;SDS011;11967;50.852;4.400;2023-06-22T12:23:40;19.55;;;13.25;;
23578;SDS011;11967;50.852;4.400;2023-06-22T12:26:06;14.60;;;11.52;;
23578;SDS011;11967;50.852;4.400;2023-06-22T12:28:31;15.75;;;11.77;;
23578;SDS011;11967;50.852;4.400;2023-06-22T12:30:57;16.90;;;13.63;;
23578;SDS011;11967;50.852;4.400;2023-06-22T12:33:23;17.83;;;13.90;;
23578;SDS011;11967;50.852;4.400;2023-06-22T12:35:48;21.48;;;14.95;;
23578;SDS011;11967;50.852;4.400;2023-06-22T12:38:14;18.17;;;13.95;;
23578;SDS011;11967;50.852;4.400;2023-06-22T12:40:39;14.90;;;12.63;;
23578;SDS011;11967;50.852;4.400;2023-06-22T12:43:06;19.35;;;12.82;;
23578;SDS011;11967;50.852;4.400;2023-06-22T12:45:32;17.27;;;13.35;;
23578;SDS011;11967;50.852;4.400;2023-06-22T12:47:59;15.60;;;11.75;;
23578;SDS011;11967;50.852;4.400;2023-06-22T12:50:25;21.15;;;15.05;;
23578;SDS011;11967;50.852;4.400;2023-06-22T12:52:51;19.02;;;14.65;;
23578;SDS011;11967;50.852;4.400;2023-06-22T12:55:17;20.45;;;16.25;;
23578;SDS011;11967;50.852;4.400;2023-06-22T12:57:43;22.13;;;14.48;;
23578;SDS011;11967;50.852;4.400;2023-06-22T13:00:09;19.13;;;14.90;;
23578;SDS011;11967;50.852;4.400;2023-06-22T13:02:35;18.13;;;13.90;;
23578;SDS011;11967;50.852;4.400;2023-06-22T13:05:02;20.67;;;16.13;;
23578;SDS011;11967;50.852;4.400;2023-06-22T13:07:30;18.13;;;15.10;;
23578;SDS011;11967;50.852;4.400;2023-06-22T13:09:56;19.60;;;15.40;;
23578;SDS011;11967;50.852;4.400;2023-06-22T13:12:22;21.60;;;16.30;;
23578;SDS011;11967;50.852;4.400;2023-06-22T13:14:48;19.98;;;15.48;;
23578;SDS011;11967;50.852;4.400;2023-06-22T13:17:14;21.00;;;15.65;;
23578;SDS011;11967;50.852;4.400;2023-06-22T13:19:40;17.50;;;15.25;;
23578;SDS011;11967;50.852;4.400;2023-06-22T13:24:55;22.27;;;17.98;;
23578;SDS011;11967;50.852;4.400;2023-06-22T13:27:21;23.33;;;19.50;;
23578;SDS011;11967;50.852;4.400;2023-06-22T13:29:47;26.58;;;18.75;;
23578;SDS011;11967;50.852;4.400;2023-06-22T13:32:13;22.58;;;18.83;;
23578;SDS011;11967;50.852;4.400;2023-06-22T13:34:38;23.80;;;18.20;;
23578;SDS011;11967;50.852;4.400;2023-06-22T13:37:04;22.85;;;18.58;;
23578;SDS011;11967;50.852;4.400;2023-06-22T13:39:30;24.58;;;19.30;;
23578;SDS011;11967;50.852;4.400;2023-06-22T13:41:57;26.65;;;17.30;;
23578;SDS011;11967;50.852;4.400;2023-06-22T13:44:25;26.33;;;15.90;;
23578;SDS011;11967;50.852;4.400;2023-06-22T13:46:54;21.27;;;15.35;;
23578;SDS011;11967;50.852;4.400;2023-06-22T13:49:20;20.88;;;16.42;;
23578;SDS011;11967;50.852;4.400;2023-06-22T13:51:46;22.33;;;17.10;;
23578;SDS011;11967;50.852;4.400;2023-06-22T13:54:13;19.88;;;15.52;;
23578;SDS011;11967;50.852;4.400;2023-06-22T13:56:39;19.85;;;15.50;;
23578;SDS011;11967;50.852;4.400;2023-06-22T13:59:04;20.90;;;15.95;;
23578;SDS011;11967;50.852;4.400;2023-06-22T14:01:33;21.80;;;15.27;;
23578;SDS011;11967;50.852;4.400;2023-06-22T14:04:00;21.02;;;15.48;;
23578;SDS011;11967;50.852;4.400;2023-06-22T14:09:00;19.75;;;14.88;;
23578;SDS011;11967;50.852;4.400;2023-06-22T14:11:42;20.35;;;15.23;;
23578;SDS011;11967;50.852;4.400;2023-06-22T14:14:08;21.27;;;16.50;;
23578;SDS011;11967;50.852;4.400;2023-06-22T14:16:34;21.42;;;16.52;;
23578;SDS011;11967;50.852;4.400;2023-06-22T14:18:59;19.85;;;15.20;;
23578;SDS011;11967;50.852;4.400;2023-06-22T14:21:25;20.45;;;15.10;;
23578;SDS011;11967;50.852;4.400;2023-06-22T14:23:51;20.50;;;14.95;;
23578;SDS011;11967;50.852;4.400;2023-06-22T14:26:17;19.45;;;15.77;;
23578;SDS011;11967;50.852;4.400;2023-06-22T14:28:44;26.60;;;15.88;;
23578;SDS011;11967;50.852;4.400;2023-06-22T14:31:16;19.77;;;15.80;;
23578;SDS011;11967;50.852;4.400;2023-06-22T14:33:45;20.83;;;16.52;;
23578;SDS011;11967;50.852;4.400;2023-06-22T14:36:12;22.10;;;15.90;;
23578;SDS011;11967;50.852;4.400;2023-06-22T14:38:38;19.92;;;16.33;;
23578;SDS011;11967;50.852;4.400;2023-06-22T14:41:03;23.17;;;16.63;;